Time;durP1;ratioP1;P1;durP2;ratioP2;P2;SDS_P1;SDS_P2;PMS_P1;PMS_P2;Temp;Humidity;BMP_temperature;BMP_pressure;BME280_temperature;BME280_humidity;BME280_pressure;Samples;Min_cycle;Max_cycle;Signal;HPM_P1;HPM_P2
2021/10/22 00:00:12;;;;;;;20.90;8.30;;;;;;;13.76;56.88;98504.02;116627;1196;22360;-69
2021/10/22 00:02:41;;;;;;;16.40;7.00;;;;;;;13.78;57.01;98501.02;116601;1201;22306;-69
2021/10/22 00:05:10;;;;;;;12.30;6.30;;;;;;;13.79;56.97;98498.60;116523;1201;138319;-70
2021/10/22 00:07:39;;;;;;;11.30;6.30;;;;;;;13.81;57.09;98496.27;116512;1197;22300;-69
2021/10/22 00:10:24;;;;;;;10.40;6.50;;;;;;;13.84;57.05;98499.67;116485;1201;138404;-69
2021/10/22 00:12:55;;;;;;;12.50;5.90;;;;;;;13.86;57.11;98498.85;116563;1201;22299;-70
2021/10/22 00:15:38;;;;;;;11.80;6.80;;;;;;;13.87;57.18;98497.98;116500;1201;138327;-71
2021/10/22 00:18:06;;;;;;;13.60;6.90;;;;;;;13.88;57.08;98490.30;116645;1201;22280;-70
2021/10/22 00:20:35;;;;;;;12.60;6.00;;;;;;;13.91;57.18;98488.56;116582;1201;22273;-70
2021/10/22 00:23:03;;;;;;;10.40;5.60;;;;;;;13.92;57.18;98489.74;116434;1201;140302;-70
2021/10/22 00:25:31;;;;;;;10.10;5.40;;;;;;;13.93;57.18;98489.17;116629;1201;22227;-70
2021/10/22 00:27:59;;;;;;;11.20;6.20;;;;;;;13.94;57.15;98492.06;116532;1201;137158;-71
2021/10/22 00:30:28;;;;;;;8.60;5.20;;;;;;;13.95;57.18;98487.98;116642;1201;22777;-71
2021/10/22 00:32:56;;;;;;;10.30;5.70;;;;;;;13.96;57.20;98488.52;116527;1201;138220;-69
2021/10/22 00:35:24;;;;;;;12.80;5.10;;;;;;;13.97;57.18;98478.77;116535;1201;22216;-69
2021/10/22 00:37:52;;;;;;;16.40;5.30;;;;;;;13.99;57.27;98472.17;116647;1201;22328;-69
2021/10/22 00:40:21;;;;;;;10.00;5.10;;;;;;;13.99;57.27;98473.77;114384;1201;137176;-69
2021/10/22 00:42:49;;;;;;;9.60;5.10;;;;;;;14.02;57.23;98477.16;111967;1196;24030;-68
2021/10/22 00:45:17;;;;;;;10.40;5.90;;;;;;;14.02;57.24;98479.00;112041;1201;138377;-69
2021/10/22 00:47:45;;;;;;;8.30;5.60;;;;;;;14.02;57.14;98480.48;112317;1195;22480;-69
2021/10/22 00:50:13;;;;;;;14.80;6.20;;;;;;;14.03;57.28;98478.45;116479;1200;22387;-69
2021/10/22 00:52:44;;;;;;;11.70;6.00;;;;;;;14.03;57.11;98473.14;116521;1201;137317;-69
2021/10/22 00:55:13;;;;;;;13.00;5.80;;;;;;;14.02;57.17;98472.98;116445;1201;22226;-68
2021/10/22 00:57:43;;;;;;;9.20;5.50;;;;;;;14.03;57.19;98471.22;116420;1201;137618;-68
2021/10/22 01:00:12;;;;;;;12.00;5.50;;;;;;;14.04;57.15;98471.74;116600;1200;22353;-68
2021/10/22 01:02:42;;;;;;;6.40;4.90;;;;;;;14.04;57.19;98473.67;116621;1201;22762;-68
2021/10/22 01:05:13;;;;;;;12.50;5.30;;;;;;;14.07;57.11;98484.83;116502;1201;137494;-68
2021/10/22 01:07:41;;;;;;;9.30;5.30;;;;;;;14.09;57.08;98483.09;116614;1201;23074;-68
2021/10/22 01:10:11;;;;;;;9.80;5.30;;;;;;;14.12;56.95;98487.81;116511;1201;137714;-68
2021/10/22 01:12:41;;;;;;;10.60;5.40;;;;;;;14.13;57.01;98491.44;116617;1201;23355;-68
2021/10/22 01:15:09;;;;;;;12.00;4.80;;;;;;;14.15;56.92;98496.98;116422;1201;137303;-68
2021/10/22 01:17:44;;;;;;;11.60;4.70;;;;;;;14.16;56.82;98500.58;116563;1201;23064;-67
2021/10/22 01:20:17;;;;;;;;;;;;;;;14.17;56.81;98501.81;116625;1196;22327;-68
2021/10/22 01:22:47;;;;;;;11.00;5.20;;;;;;;14.18;56.80;98505.63;116548;1200;123543;-68
2021/10/22 01:25:18;;;;;;;10.00;4.80;;;;;;;14.19;56.75;98514.05;116546;1201;22356;-68
2021/10/22 01:27:46;;;;;;;9.40;4.40;;;;;;;14.20;56.69;98516.29;116448;1200;138150;-68
2021/10/22 01:30:16;;;;;;;10.70;5.20;;;;;;;14.22;56.75;98518.33;116624;1201;22733;-67
2021/10/22 01:32:45;;;;;;;9.80;5.40;;;;;;;14.22;56.66;98524.91;116608;1201;22328;-68
2021/10/22 01:35:13;;;;;;;14.80;4.40;;;;;;;14.24;56.61;98519.42;116475;1200;136781;-68
2021/10/22 01:37:41;;;;;;;10.00;5.50;;;;;;;14.26;56.63;98521.86;116578;1201;22250;-66
2021/10/22 01:40:10;;;;;;;13.00;4.90;;;;;;;14.26;56.45;98525.97;114596;1195;137495;-66
2021/10/22 01:42:38;;;;;;;6.60;4.50;;;;;;;14.28;56.39;98531.70;112292;1201;24251;-66
2021/10/22 01:45:07;;;;;;;10.20;4.10;;;;;;;14.29;56.25;98529.30;112238;1195;137439;-66
2021/10/22 01:47:35;;;;;;;16.50;5.00;;;;;;;14.30;56.04;98536.21;116646;1202;23157;-66
2021/10/22 01:50:04;;;;;;;7.60;4.30;;;;;;;14.31;56.04;98541.08;116558;1201;22305;-67
2021/10/22 01:52:32;;;;;;;8.60;4.40;;;;;;;14.32;55.95;98542.27;116508;1201;136968;-66
2021/10/22 01:55:00;;;;;;;7.30;3.80;;;;;;;14.33;55.80;98545.91;116509;1201;22352;-67
2021/10/22 01:57:28;;;;;;;10.90;4.00;;;;;;;14.33;55.79;98548.11;116475;1201;137140;-67
2021/10/22 01:59:56;;;;;;;12.80;4.20;;;;;;;14.32;55.47;98547.20;116607;1201;22241;-66
2021/10/22 02:02:25;;;;;;;6.90;4.50;;;;;;;14.34;55.32;98552.70;116635;1201;22319;-66
2021/10/22 02:04:54;;;;;;;9.90;3.90;;;;;;;14.35;55.20;98558.16;116387;1201;138791;-68
2021/10/22 02:07:23;;;;;;;16.30;4.50;;;;;;;14.36;55.01;98564.23;116573;1201;22313;-69
2021/10/22 02:09:51;;;;;;;7.30;3.60;;;;;;;14.36;54.74;98565.91;116432;1200;142662;-68
2021/10/22 02:12:19;;;;;;;15.40;4.10;;;;;;;14.37;54.67;98565.35;116515;1197;22207;-68
2021/10/22 02:14:47;;;;;;;12.00;4.10;;;;;;;14.38;54.41;98564.58;116581;1201;23552;-68
2021/10/22 02:17:16;;;;;;;13.30;3.30;;;;;;;14.38;54.48;98570.71;116492;1201;138133;-68
2021/10/22 02:19:44;;;;;;;13.60;4.30;;;;;;;14.38;54.37;98573.55;116520;1201;22477;-68
2021/10/22 02:22:12;;;;;;;7.30;3.70;;;;;;;14.38;54.21;98577.93;116496;1200;138276;-67
2021/10/22 02:24:41;;;;;;;10.60;3.10;;;;;;;14.38;54.00;98583.70;116616;1201;22348;-68
2021/10/22 02:27:10;;;;;;;10.10;4.30;;;;;;;14.37;53.92;98588.59;116388;1201;137599;-68
2021/10/22 02:29:38;;;;;;;8.00;3.20;;;;;;;14.36;53.96;98591.67;116508;1197;22328;-68
2021/10/22 02:32:06;;;;;;;8.20;3.50;;;;;;;14.35;53.78;98590.76;116628;1201;22946;-68
2021/10/22 02:34:35;;;;;;;9.20;3.30;;;;;;;14.33;53.56;98593.92;116446;1201;138354;-68
2021/10/22 02:37:03;;;;;;;8.00;3.10;;;;;;;14.31;53.62;98597.08;116582;1201;22289;-68
2021/10/22 02:39:36;;;;;;;13.40;4.00;;;;;;;14.29;53.61;98604.69;116456;1201;137729;-68
2021/10/22 02:42:04;;;;;;;11.30;3.80;;;;;;;14.26;53.60;98604.16;116679;1201;22306;-68
2021/10/22 02:44:33;;;;;;;9.90;3.30;;;;;;;14.23;53.71;98605.65;116610;1200;23419;-66
2021/10/22 02:47:02;;;;;;;6.80;3.20;;;;;;;14.20;53.56;98602.70;116472;1201;137282;-66
2021/10/22 02:49:30;;;;;;;4.80;3.10;;;;;;;14.16;53.61;98609.83;116614;1200;22336;-67
2021/10/22 02:51:59;;;;;;;8.60;3.10;;;;;;;14.13;53.62;98618.39;116504;1197;137443;-68
2021/10/22 02:54:28;;;;;;;6.30;3.50;;;;;;;14.11;53.72;98621.61;116572;1197;22334;-66
2021/10/22 02:56:56;;;;;;;7.90;3.00;;;;;;;14.06;53.81;98621.58;116390;1202;139360;-66
2021/10/22 02:59:24;;;;;;;8.60;3.40;;;;;;;14.05;53.84;98626.52;116512;1201;22353;-66
2021/10/22 03:01:52;;;;;;;8.40;3.40;;;;;;;14.02;53.84;98630.48;116575;1201;22401;-66
2021/10/22 03:04:21;;;;;;;8.10;3.20;;;;;;;13.99;53.98;98636.02;116468;1201;137245;-66
2021/10/22 03:06:49;;;;;;;8.90;3.20;;;;;;;13.96;54.02;98636.04;116625;1201;22398;-66
2021/10/22 03:09:17;;;;;;;12.50;4.60;;;;;;;13.92;54.15;98639.97;116474;1201;137298;-66
2021/10/22 03:11:46;;;;;;;6.60;4.30;;;;;;;13.89;54.15;98643.98;116664;1201;22389;-66
2021/10/22 03:14:15;;;;;;;7.60;3.40;;;;;;;13.86;54.28;98645.55;116565;1201;22343;-66
2021/10/22 03:16:43;;;;;;;13.90;4.20;;;;;;;13.85;54.31;98645.86;116485;1200;137296;-65
2021/10/22 03:19:11;;;;;;;8.60;3.50;;;;;;;13.83;54.54;98647.39;116537;1202;22345;-66
2021/10/22 03:21:40;;;;;;;8.00;3.40;;;;;;;13.80;54.52;98648.64;116442;1197;140148;-66
2021/10/22 03:24:08;;;;;;;7.20;3.70;;;;;;;13.77;54.66;98649.00;116573;1201;23507;-66
2021/10/22 03:26:37;;;;;;;14.40;5.20;;;;;;;13.72;54.85;98649.95;116546;1201;22394;-66
2021/10/22 03:29:05;;;;;;;7.80;3.40;;;;;;;13.70;54.91;98653.39;116476;1201;137193;-66
2021/10/22 03:31:35;;;;;;;4.90;3.30;;;;;;;13.68;55.00;98653.88;116602;1200;22606;-66
2021/10/22 03:34:03;;;;;;;6.10;3.80;;;;;;;13.66;55.16;98658.28;116496;1201;137027;-66
2021/10/22 03:36:34;;;;;;;6.40;3.70;;;;;;;13.63;55.17;98660.79;116583;1201;22493;-66
2021/10/22 03:39:06;;;;;;;7.60;4.20;;;;;;;13.60;55.18;98654.64;116438;1201;137494;-69
2021/10/22 03:41:35;;;;;;;12.20;4.00;;;;;;;13.58;55.26;98659.71;112173;1195;25344;-68
2021/10/22 03:44:03;;;;;;;7.50;3.20;;;;;;;13.55;55.45;98658.09;116441;1201;23762;-69
2021/10/22 03:46:32;;;;;;;8.30;3.40;;;;;;;13.53;55.33;98658.50;116411;1201;136850;-69
2021/10/22 03:49:00;;;;;;;12.30;5.00;;;;;;;13.50;55.51;98660.67;116532;1201;22253;-69
2021/10/22 03:51:28;;;;;;;13.10;4.30;;;;;;;13.48;55.45;98669.17;116418;1200;137525;-68
2021/10/22 03:54:00;;;;;;;6.50;3.90;;;;;;;13.47;55.51;98669.92;116559;1201;22249;-69
2021/10/22 03:56:28;;;;;;;8.20;3.80;;;;;;;13.44;55.69;98674.70;116615;1201;22307;-68
2021/10/22 03:58:56;;;;;;;7.10;3.50;;;;;;;13.41;55.58;98679.53;116462;1201;136924;-69
2021/10/22 04:01:25;;;;;;;12.60;3.70;;;;;;;13.39;55.78;98684.66;116607;1200;23002;-69
2021/10/22 04:03:53;;;;;;;12.20;3.90;;;;;;;13.36;55.61;98685.02;116427;1201;137131;-69
2021/10/22 04:06:21;;;;;;;11.20;3.90;;;;;;;13.34;55.68;98690.96;116557;1201;22436;-68
2021/10/22 04:08:49;;;;;;;12.30;4.40;;;;;;;13.32;55.81;98694.49;116597;1200;24130;-68
2021/10/22 04:11:17;;;;;;;9.40;3.90;;;;;;;13.30;55.86;98699.61;116473;1195;137279;-69
2021/10/22 04:13:46;;;;;;;10.60;3.50;;;;;;;13.28;56.02;98697.28;116596;1201;22384;-70
2021/10/22 04:16:14;;;;;;;10.70;3.20;;;;;;;13.26;56.00;98700.55;116465;1201;138150;-69
2021/10/22 04:18:43;;;;;;;5.40;3.30;;;;;;;13.23;56.00;98703.65;116602;1195;22411;-68
2021/10/22 04:21:12;;;;;;;7.80;4.00;;;;;;;13.22;56.10;98713.19;116479;1201;138689;-69
2021/10/22 04:23:41;;;;;;;14.80;3.80;;;;;;;13.20;56.11;98715.08;116537;1201;22334;-69
2021/10/22 04:26:09;;;;;;;10.20;3.80;;;;;;;13.18;56.09;98723.31;116262;1202;23475;-69
2021/10/22 04:28:38;;;;;;;8.80;3.30;;;;;;;13.13;56.13;98722.64;116446;1201;137156;-69
2021/10/22 04:31:06;;;;;;;7.80;3.00;;;;;;;13.11;56.10;98712.65;116575;1201;22328;-69
2021/10/22 04:33:34;;;;;;;6.60;2.60;;;;;;;13.09;55.86;98717.34;116518;1200;137160;-70
2021/10/22 04:36:02;;;;;;;6.30;3.20;;;;;;;13.05;55.63;98723.27;116564;1201;22245;-69
2021/10/22 04:41:17;;;;;;;11.80;4.60;;;;;;;13.00;55.03;98724.11;116420;1201;138949;-69
2021/10/22 04:43:49;;;;;;;11.70;3.00;;;;;;;12.98;54.80;98731.42;116498;1201;22392;-69
2021/10/22 04:46:17;;;;;;;7.60;2.40;;;;;;;12.93;54.70;98730.06;116367;1201;137272;-67
2021/10/22 04:48:46;;;;;;;9.40;2.60;;;;;;;12.94;54.62;98745.96;116508;1201;22353;-69
2021/10/22 04:51:14;;;;;;;14.60;3.90;;;;;;;12.91;54.79;98756.33;116427;1201;137533;-68
2021/10/22 04:53:42;;;;;;;9.30;2.90;;;;;;;12.88;54.58;98764.06;116589;1200;22450;-67
2021/10/22 04:56:10;;;;;;;8.70;3.10;;;;;;;12.86;54.76;98766.82;116549;1201;22635;-67
2021/10/22 04:58:39;;;;;;;16.80;3.20;;;;;;;12.85;54.86;98767.16;116424;1195;136974;-71
2021/10/22 05:01:07;;;;;;;9.90;2.40;;;;;;;12.84;55.01;98770.80;116571;1201;22284;-70
2021/10/22 05:03:35;;;;;;;7.20;2.60;;;;;;;12.82;55.09;98768.04;116416;1197;137857;-71
2021/10/22 05:06:04;;;;;;;29.50;4.40;;;;;;;12.81;55.17;98773.46;116612;1200;22299;-71
2021/10/22 05:08:32;;;;;;;18.70;2.90;;;;;;;12.81;55.28;98776.41;116584;1201;23138;-70
2021/10/22 05:11:01;;;;;;;8.20;2.70;;;;;;;12.80;55.26;98772.11;116450;1201;137729;-69
2021/10/22 05:13:30;;;;;;;8.00;2.40;;;;;;;12.78;54.87;98771.69;116544;1201;22714;-69
2021/10/22 05:15:58;;;;;;;9.60;2.20;;;;;;;12.80;54.84;98778.11;116398;1201;139466;-69
2021/10/22 05:18:28;;;;;;;8.50;2.30;;;;;;;12.76;54.74;98778.27;116584;1201;22248;-69
2021/10/22 05:20:56;;;;;;;7.50;2.40;;;;;;;12.78;54.55;98789.56;116557;1202;22984;-69
2021/10/22 05:23:24;;;;;;;24.30;4.10;;;;;;;12.78;54.35;98791.09;116513;1200;137346;-69
2021/10/22 05:25:52;;;;;;;9.00;2.60;;;;;;;12.76;54.07;98792.70;116576;1201;22728;-68
2021/10/22 05:28:20;;;;;;;14.10;2.40;;;;;;;12.77;53.79;98796.95;116405;1202;137353;-69
2021/10/22 05:30:49;;;;;;;6.00;2.50;;;;;;;12.77;53.27;98799.36;116574;1201;22147;-68
2021/10/22 05:33:19;;;;;;;17.10;2.80;;;;;;;12.77;52.87;98809.36;116500;1201;138063;-69
2021/10/22 05:35:47;;;;;;;24.70;3.40;;;;;;;12.77;52.56;98815.15;116583;1197;22307;-68
2021/10/22 05:38:15;;;;;;;13.70;4.50;;;;;;;12.79;52.43;98823.18;116557;1201;22448;-67
2021/10/22 05:40:43;;;;;;;18.10;5.70;;;;;;;12.81;52.23;98826.34;116480;1195;137901;-67
2021/10/22 05:43:11;;;;;;;13.90;3.80;;;;;;;12.83;52.09;98829.48;116587;1201;22249;-66
2021/10/22 05:45:39;;;;;;;4.40;2.00;;;;;;;12.85;51.94;98828.84;116457;1201;137787;-67
2021/10/22 05:48:07;;;;;;;7.40;2.50;;;;;;;12.87;51.99;98830.13;116542;1201;24275;-67
2021/10/22 05:50:39;;;;;;;16.90;2.60;;;;;;;12.90;52.00;98825.67;116556;1201;22303;-66
2021/10/22 05:53:07;;;;;;;8.00;2.20;;;;;;;12.94;52.02;98820.55;116394;1201;137539;-68
2021/10/22 05:55:35;;;;;;;7.50;2.00;;;;;;;12.98;51.88;98823.02;116490;1202;22302;-67
2021/10/22 05:58:03;;;;;;;8.20;2.70;;;;;;;13.04;51.94;98824.70;116416;1201;137932;-67
2021/10/22 06:00:31;;;;;;;7.30;2.50;;;;;;;13.10;51.72;98823.92;116583;1201;22272;-67
2021/10/22 06:03:00;;;;;;;15.30;2.60;;;;;;;13.17;51.44;98832.89;116566;1195;22335;-67
2021/10/22 06:05:28;;;;;;;14.10;2.70;;;;;;;13.22;51.38;98837.31;116460;1201;138317;-67
2021/10/22 06:07:56;;;;;;;17.30;3.50;;;;;;;13.29;51.47;98834.77;116586;1202;22350;-67
2021/10/22 06:10:24;;;;;;;20.30;3.10;;;;;;;13.34;51.40;98829.35;116473;1201;137747;-67
2021/10/22 06:13:04;;;;;;;11.30;3.60;;;;;;;13.41;51.45;98829.92;116506;1201;22211;-67
2021/10/22 06:15:32;;;;;;;15.20;3.20;;;;;;;13.47;51.39;98831.96;116429;1201;138404;-66
2021/10/22 06:18:00;;;;;;;11.90;3.50;;;;;;;13.52;51.38;98830.77;116580;1201;23597;-67
2021/10/22 06:20:54;;;;;;;8.80;4.00;;;;;;;13.57;51.17;98838.56;116573;1201;22251;-67
2021/10/22 06:26:04;;;;;;;20.70;3.40;;;;;;;13.64;51.80;98845.27;116580;1188;23479;-67
2021/10/22 06:28:31;;;;;;;25.80;5.10;;;;;;;13.65;52.07;98845.86;116414;1201;137653;-66
2021/10/22 06:31:01;;;;;;;9.20;3.20;;;;;;;13.66;52.37;98846.89;116576;1201;23006;-67
2021/10/22 06:33:29;;;;;;;13.50;3.90;;;;;;;13.65;52.85;98843.98;116403;1202;137539;-66
2021/10/22 06:35:57;;;;;;;14.70;4.10;;;;;;;13.65;53.00;98846.34;116608;1201;22323;-67
2021/10/22 06:38:26;;;;;;;12.00;3.30;;;;;;;13.66;53.39;98849.91;116559;1201;23268;-67
2021/10/22 06:40:55;;;;;;;8.30;3.70;;;;;;;13.68;53.39;98850.59;113161;1201;138165;-67
2021/10/22 06:43:23;;;;;;;13.20;3.30;;;;;;;13.71;53.68;98855.67;116443;1196;22343;-68
2021/10/22 06:45:51;;;;;;;12.80;2.80;;;;;;;13.74;53.60;98852.46;116411;1201;137298;-68
2021/10/22 06:48:20;;;;;;;11.40;2.60;;;;;;;13.78;52.70;98854.21;116504;1201;22273;-68
2021/10/22 06:50:47;;;;;;;8.50;2.60;;;;;;;13.82;52.43;98859.11;116583;1201;22124;-68
2021/10/22 06:53:15;;;;;;;13.50;6.00;;;;;;;13.86;52.34;98853.72;116473;1201;137043;-68
2021/10/22 06:55:43;;;;;;;11.70;4.50;;;;;;;13.90;52.42;98855.96;116593;1201;22329;-68
2021/10/22 06:58:13;;;;;;;14.90;6.30;;;;;;;13.95;52.38;98853.92;116473;1195;137664;-68
2021/10/22 07:03:02;;;;;;;6.70;3.10;;;;;;;14.02;51.70;98848.60;110802;1209;544898;-69
2021/10/22 07:08:25;;;;;;;9.60;3.30;;;;;;;14.03;51.96;98854.12;115867;1201;23286;-69
2021/10/22 07:10:53;;;;;;;11.90;3.90;;;;;;;14.04;51.96;98854.82;115835;1206;137592;-69
2021/10/22 07:13:21;;;;;;;10.10;3.80;;;;;;;14.06;52.01;98854.52;115924;1206;22298;-69
2021/10/22 07:15:49;;;;;;;16.10;4.50;;;;;;;14.08;52.19;98856.63;115830;1207;137082;-70
2021/10/22 07:18:18;;;;;;;21.00;6.70;;;;;;;14.11;52.47;98850.52;115954;1206;22413;-70
2021/10/22 07:20:46;;;;;;;19.90;4.70;;;;;;;14.16;52.78;98858.13;115966;1207;22257;-70
2021/10/22 07:23:14;;;;;;;22.20;5.00;;;;;;;14.22;52.88;98859.16;115792;1207;136614;-70
2021/10/22 07:25:43;;;;;;;10.00;3.80;;;;;;;14.27;52.69;98860.35;115937;1207;22166;-70
2021/10/22 07:28:16;;;;;;;8.20;4.10;;;;;;;14.32;52.17;98858.88;115812;1201;136924;-65
2021/10/22 07:30:47;;;;;;;23.00;4.80;;;;;;;14.35;52.10;98860.58;115933;1207;23217;-64
2021/10/22 07:33:16;;;;;;;15.50;3.70;;;;;;;14.40;51.45;98867.83;115790;1207;137189;-64
2021/10/22 07:35:44;;;;;;;13.90;4.30;;;;;;;14.43;51.18;98873.10;115931;1204;22760;-65
2021/10/22 07:38:13;;;;;;;16.90;4.30;;;;;;;14.45;51.29;98877.00;115922;1207;22284;-64
2021/10/22 07:40:41;;;;;;;19.90;4.20;;;;;;;14.48;50.86;98878.31;113058;1201;137242;-66
2021/10/22 07:43:09;;;;;;;23.70;4.00;;;;;;;14.53;50.35;98875.96;115777;1207;23188;-67
2021/10/22 07:45:37;;;;;;;27.40;4.70;;;;;;;14.55;49.86;98871.71;115926;1204;137573;-68
2021/10/22 07:48:06;;;;;;;30.80;4.70;;;;;;;14.57;48.82;98880.55;116059;1190;22339;-68
2021/10/22 07:50:34;;;;;;;40.90;4.10;;;;;;;14.58;47.75;98882.77;116109;1204;22348;-68
2021/10/22 07:53:02;;;;;;;15.80;3.10;;;;;;;14.58;47.40;98883.54;115992;1204;136579;-69
2021/10/22 07:55:30;;;;;;;16.50;4.20;;;;;;;14.58;47.41;98883.00;116177;1204;22302;-69
2021/10/22 07:57:58;;;;;;;16.20;4.30;;;;;;;14.58;47.32;98886.10;115940;1204;137313;-70
2021/10/22 08:00:26;;;;;;;22.40;3.80;;;;;;;14.61;47.31;98890.89;116141;1204;22401;-70
2021/10/22 08:02:54;;;;;;;15.80;3.90;;;;;;;14.65;47.34;98894.83;116112;1204;22320;-69
2021/10/22 08:05:23;;;;;;;19.70;3.00;;;;;;;14.70;46.84;98896.30;115988;1204;136720;-67
2021/10/22 08:07:52;;;;;;;23.50;3.30;;;;;;;14.72;46.29;98892.24;116070;1204;22228;-66
2021/10/22 08:10:22;;;;;;;19.70;3.70;;;;;;;14.72;46.17;98892.89;116131;1202;137763;-64
2021/10/22 08:12:50;;;;;;;24.10;3.20;;;;;;;14.71;45.99;98894.35;116234;1203;22277;-66
2021/10/22 08:15:39;;;;;;;25.20;3.60;;;;;;;14.71;46.27;98896.44;116166;1197;137486;-66
2021/10/22 08:18:08;;;;;;;16.20;2.80;;;;;;;14.70;46.11;98903.85;116291;1203;22326;-67
2021/10/22 08:20:39;;;;;;;11.50;2.50;;;;;;;14.70;46.05;98906.05;116263;1203;22323;-64
2021/10/22 08:23:07;;;;;;;19.00;2.80;;;;;;;14.71;45.64;98903.90;116079;1203;137094;-66
2021/10/22 08:25:37;;;;;;;15.80;3.10;;;;;;;14.72;46.14;98898.66;116209;1198;22392;-68
2021/10/22 08:28:05;;;;;;;9.10;2.10;;;;;;;14.71;46.85;98900.89;116171;1203;136976;-69
2021/10/22 08:30:33;;;;;;;9.30;2.50;;;;;;;14.70;47.31;98902.39;116310;1203;23467;-69
2021/10/22 08:33:01;;;;;;;16.40;2.60;;;;;;;14.68;47.10;98898.73;116299;1203;23198;-68
2021/10/22 08:35:30;;;;;;;17.90;3.40;;;;;;;14.64;47.10;98899.95;116143;1203;137289;-68
2021/10/22 08:37:58;;;;;;;15.10;3.40;;;;;;;14.61;47.17;98906.36;116200;1202;22715;-68
2021/10/22 08:40:27;;;;;;;20.10;2.50;;;;;;;14.58;46.94;98911.54;113841;1203;136830;-66
2021/10/22 08:42:54;;;;;;;12.00;2.60;;;;;;;14.58;46.97;98905.64;111956;1203;22870;-68
2021/10/22 08:45:23;;;;;;;32.90;3.00;;;;;;;14.58;47.13;98914.58;111885;1203;137916;-66
2021/10/22 08:47:51;;;;;;;21.80;3.90;;;;;;;14.58;47.08;98913.35;112002;1197;22740;-67
2021/10/22 08:50:21;;;;;;;13.70;2.60;;;;;;;14.58;46.57;98916.71;116219;1203;22183;-68
2021/10/22 08:52:49;;;;;;;27.00;2.90;;;;;;;14.59;47.42;98919.87;116146;1203;138875;-71
2021/10/22 08:55:18;;;;;;;39.80;4.50;;;;;;;14.56;47.48;98920.31;116232;1202;22355;-68
2021/10/22 08:57:47;;;;;;;16.10;2.50;;;;;;;14.52;46.60;98921.91;116118;1202;136995;-66
2021/10/22 09:00:17;;;;;;;23.80;2.50;;;;;;;14.49;46.28;98926.39;116252;1203;22369;-68
2021/10/22 09:02:48;;;;;;;18.80;4.00;;;;;;;14.48;47.10;98922.63;116235;1203;22328;-68
2021/10/22 09:05:18;;;;;;;16.40;2.40;;;;;;;14.47;47.23;98926.64;116113;1203;138196;-69
2021/10/22 09:07:53;;;;;;;11.30;2.30;;;;;;;14.45;47.48;98927.31;116235;1203;22243;-68
2021/10/22 09:10:27;;;;;;;22.80;3.90;;;;;;;14.43;47.72;98922.91;116149;1203;136817;-66
2021/10/22 09:12:57;;;;;;;10.80;2.30;;;;;;;14.44;46.65;98927.45;116218;1203;22310;-67
2021/10/22 09:15:27;;;;;;;14.80;2.30;;;;;;;14.46;46.83;98922.27;115936;1203;137594;-68
2021/10/22 09:18:16;;;;;;;13.30;4.00;;;;;;;14.48;46.60;98922.02;116224;1189;22327;-68
2021/10/22 09:20:54;;;;;;;17.90;3.30;;;;;;;14.48;46.71;98919.11;116242;1203;22660;-68
2021/10/22 09:23:27;;;;;;;12.50;3.10;;;;;;;14.48;46.39;98924.10;116086;1203;137667;-67
2021/10/22 09:26:14;;;;;;;15.00;3.50;;;;;;;14.49;46.06;98916.02;116287;1196;22432;-68
2021/10/22 09:28:43;;;;;;;15.90;5.40;;;;;;;14.51;46.40;98921.55;116103;1203;137045;-68
2021/10/22 09:31:12;;;;;;;23.50;3.90;;;;;;;14.52;46.94;98922.95;116208;1203;22442;-68
2021/10/22 09:33:57;;;;;;;23.60;4.00;;;;;;;14.53;46.78;98926.52;116102;1203;138500;-67
2021/10/22 09:36:42;;;;;;;10.90;3.50;;;;;;;14.54;46.83;98925.34;116216;1203;22310;-67
2021/10/22 09:39:21;;;;;;;20.70;3.90;;;;;;;14.57;46.81;98928.31;116153;1202;137387;-67
2021/10/22 09:41:57;;;;;;;10.70;3.10;;;;;;;14.58;46.29;98928.44;116221;1203;22311;-66
2021/10/22 09:44:30;;;;;;;18.80;2.80;;;;;;;14.60;46.62;98930.83;116311;1203;22328;-68
2021/10/22 09:47:04;;;;;;;11.70;2.00;;;;;;;14.60;46.24;98926.88;116186;1203;138566;-69
2021/10/22 09:49:35;;;;;;;21.20;3.00;;;;;;;14.64;45.56;98921.33;116315;1203;22341;-67
2021/10/22 09:52:24;;;;;;;23.70;3.40;;;;;;;14.71;45.18;98925.95;116135;1203;138136;-67
2021/10/22 09:55:06;;;;;;;32.60;3.80;;;;;;;14.77;44.75;98920.51;116301;1203;22307;-70
2021/10/22 09:57:37;;;;;;;25.50;2.50;;;;;;;14.81;44.69;98925.44;116181;1203;137633;-69
2021/10/22 10:00:12;;;;;;;29.70;3.60;;;;;;;14.85;44.66;98931.47;116273;1203;23503;-68
2021/10/22 10:02:40;;;;;;;28.60;4.60;;;;;;;14.86;44.07;98926.77;116270;1202;23102;-68
2021/10/22 10:05:11;;;;;;;27.60;3.40;;;;;;;14.91;44.50;98935.73;116187;1203;138227;-67
2021/10/22 10:07:42;;;;;;;11.40;2.40;;;;;;;14.94;44.15;98936.63;116256;1203;23071;-67
2021/10/22 10:10:11;;;;;;;24.00;3.00;;;;;;;14.97;43.81;98932.73;116215;1189;137946;-67
2021/10/22 10:12:40;;;;;;;23.10;3.30;;;;;;;14.98;43.73;98933.27;116164;1203;22376;-67
2021/10/22 10:15:10;;;;;;;19.30;2.50;;;;;;;15.02;43.23;98936.27;116147;1203;138624;-67
2021/10/22 10:17:41;;;;;;;21.10;3.00;;;;;;;15.05;42.67;98931.54;116257;1203;23485;-67
2021/10/22 10:20:09;;;;;;;20.90;2.90;;;;;;;15.10;42.76;98934.98;116270;1203;23241;-68
2021/10/22 10:22:42;;;;;;;13.60;2.60;;;;;;;15.13;43.32;98928.28;115898;1203;137500;-67
2021/10/22 10:25:11;;;;;;;24.30;2.40;;;;;;;15.18;43.32;98926.42;116277;1203;22291;-68
2021/10/22 10:27:47;;;;;;;50.10;5.50;;;;;;;15.24;42.83;98927.37;116112;1203;137501;-68
2021/10/22 10:30:16;;;;;;;37.80;3.90;;;;;;;15.27;42.78;98935.54;116127;1203;22389;-69
2021/10/22 10:32:44;;;;;;;17.20;3.90;;;;;;;15.29;42.27;98934.08;115959;1202;22495;-69
2021/10/22 10:35:13;;;;;;;14.50;2.40;;;;;;;15.30;42.31;98937.16;116063;1203;138087;-69
2021/10/22 10:37:42;;;;;;;19.60;3.20;;;;;;;15.32;42.46;98940.32;116192;1203;22293;-69
2021/10/22 10:40:29;;;;;;;25.20;2.80;;;;;;;15.33;42.48;98936.89;114279;1203;137150;-69
2021/10/22 10:42:59;;;;;;;37.10;4.00;;;;;;;15.35;42.08;98940.54;116168;1203;22277;-69
2021/10/22 10:45:27;;;;;;;19.40;3.00;;;;;;;15.36;42.10;98945.90;116123;1203;138625;-69
2021/10/22 10:48:08;;;;;;;15.30;2.60;;;;;;;15.35;41.89;98951.80;116281;1203;22289;-69
2021/10/22 10:50:41;;;;;;;;;;;;;;;15.34;41.53;98947.09;116299;1197;22444;-69
2021/10/22 10:53:12;;;;;;;10.40;2.50;;;;;;;15.34;41.70;98945.11;116397;1201;124808;-68
2021/10/22 10:55:47;;;;;;;16.30;3.30;;;;;;;15.35;41.97;98944.89;116429;1201;22431;-67
2021/10/22 10:58:20;;;;;;;15.80;2.20;;;;;;;15.39;41.85;98949.86;116417;1201;138244;-67
2021/10/22 11:01:07;;;;;;;11.60;1.70;;;;;;;15.42;41.35;98951.18;116537;1201;22881;-67
2021/10/22 11:03:43;;;;;;;10.30;3.00;;;;;;;15.44;41.34;98952.45;116344;1201;137424;-70
2021/10/22 11:06:44;;;;;;;16.70;2.30;;;;;;;15.45;40.82;98953.80;116518;1201;22238;-70
2021/10/22 11:09:15;;;;;;;15.50;2.20;;;;;;;15.46;40.94;98948.67;116418;1201;137277;-69
2021/10/22 11:11:58;;;;;;;11.00;1.70;;;;;;;15.45;41.09;98945.33;116575;1197;22284;-69
2021/10/22 11:14:26;;;;;;;11.40;2.60;;;;;;;15.43;41.34;98941.77;116567;1201;22313;-67
2021/10/22 11:16:54;;;;;;;12.20;2.00;;;;;;;15.45;41.00;98955.05;116475;1201;137596;-68
2021/10/22 11:19:41;;;;;;;9.90;2.10;;;;;;;15.46;40.86;98954.33;116585;1201;22288;-68
2021/10/22 11:22:18;;;;;;;26.70;3.00;;;;;;;15.47;40.66;98957.50;116489;1201;137310;-67
2021/10/22 11:24:46;;;;;;;13.90;1.70;;;;;;;15.47;40.56;98960.13;116649;1200;23590;-68
2021/10/22 11:27:17;;;;;;;28.50;3.40;;;;;;;15.48;40.12;98955.82;116474;1200;138699;-67
2021/10/22 11:29:49;;;;;;;31.30;5.80;;;;;;;15.48;40.16;98953.02;116607;1201;22265;-66
2021/10/22 11:32:27;;;;;;;59.30;11.40;;;;;;;15.46;40.44;98955.38;116697;1199;23119;-65
2021/10/22 11:35:02;;;;;;;39.20;7.10;;;;;;;15.45;40.34;98956.92;116616;1199;137339;-67
2021/10/22 11:37:33;;;;;;;16.20;4.30;;;;;;;15.39;40.39;98959.09;116684;1199;22772;-67
2021/10/22 11:40:04;;;;;;;11.10;4.00;;;;;;;15.34;40.46;98969.16;116701;1187;137537;-67